Time;durP1;ratioP1;P1;durP2;ratioP2;P2;SDS_P1;SDS_P2;PMS_P1;PMS_P2;Temp;Humidity;BMP_temperature;BMP_pressure;BME280_temperature;BME280_humidity;BME280_pressure;Samples;Min_cycle;Max_cycle;Signal;HPM_P1;HPM_P2
2024/04/09 00:01:40;;;;;;;5.93;2.45;;;15.40;99.90;;;;;;5247265;27;20011;-83
2024/04/09 00:04:07;;;;;;;6.10;2.42;;;15.40;99.90;;;;;;5273518;27;20005;-84
2024/04/09 00:06:35;;;;;;;6.85;2.17;;;15.40;99.90;;;;;;5189557;27;20022;-83
2024/04/09 00:09:05;;;;;;;5.60;1.83;;;15.30;99.90;;;;;;5262100;27;20017;-83
2024/04/09 00:11:33;;;;;;;5.32;2.22;;;15.30;99.90;;;;;;5216233;27;19999;-83
2024/04/09 00:14:04;;;;;;;4.10;1.65;;;15.30;99.90;;;;;;5266130;27;20002;-83
2024/04/09 00:16:33;;;;;;;2.95;1.35;;;15.20;99.90;;;;;;5200831;27;20013;-83
2024/04/09 00:19:01;;;;;;;4.78;1.85;;;15.20;99.90;;;;;;5244379;27;20011;-82
2024/04/09 00:21:32;;;;;;;5.82;2.45;;;15.20;99.90;;;;;;5240747;27;20479;-83
2024/04/09 00:24:00;;;;;;;3.40;1.42;;;15.20;99.90;;;;;;5175007;27;20039;-83
2024/04/09 00:26:32;;;;;;;3.17;1.63;;;15.20;99.90;;;;;;5226284;27;20406;-83
2024/04/09 00:29:02;;;;;;;4.05;2.00;;;15.20;99.90;;;;;;5243469;27;20035;-83
2024/04/09 00:31:31;;;;;;;4.78;2.28;;;15.30;99.90;;;;;;5231960;27;20405;-83
2024/04/09 00:34:01;;;;;;;4.53;2.05;;;15.30;99.90;;;;;;5249786;27;20006;-83
2024/04/09 00:36:29;;;;;;;5.38;1.85;;;15.30;99.90;;;;;;5201963;27;20006;-83
2024/04/09 00:39:19;;;;;;;7.20;1.88;;;15.30;99.90;;;;;;5217841;27;20030;-83
2024/04/09 00:41:47;;;;;;;6.78;2.17;;;15.30;99.90;;;;;;5232905;27;20479;-83
2024/04/09 00:44:15;;;;;;;3.65;2.22;;;15.30;99.90;;;;;;5220973;27;20021;-83
2024/04/09 00:46:46;;;;;;;4.75;2.13;;;15.30;99.90;;;;;;5231035;27;20014;-84
2024/04/09 00:49:14;;;;;;;5.50;2.00;;;15.20;99.90;;;;;;5273439;27;20010;-84
2024/04/09 00:51:44;;;;;;;3.75;2.10;;;15.20;99.90;;;;;;5205533;27;20042;-83
2024/04/09 00:54:12;;;;;;;4.63;2.03;;;15.20;99.90;;;;;;5244742;27;20474;-83
2024/04/09 00:56:40;;;;;;;5.97;2.45;;;15.20;99.90;;;;;;5243035;27;20027;-82
2024/04/09 00:59:09;;;;;;;4.68;2.40;;;15.20;99.90;;;;;;5252975;27;20011;-82
2024/04/09 01:01:36;;;;;;;6.40;3.22;;;15.20;99.90;;;;;;5227926;27;20002;-82
2024/04/09 01:04:03;;;;;;;5.68;3.17;;;15.10;99.90;;;;;;5185280;27;20081;-82
2024/04/09 01:06:31;;;;;;;6.35;3.65;;;15.10;99.90;;;;;;5208570;27;20447;-82
2024/04/09 01:08:59;;;;;;;6.40;3.30;;;15.00;99.90;;;;;;5210449;27;20002;-82
2024/04/09 01:11:26;;;;;;;4.78;2.95;;;15.00;99.90;;;;;;5165553;27;20074;-83
2024/04/09 01:13:53;;;;;;;8.68;2.83;;;15.00;99.90;;;;;;5247791;27;20007;-83
2024/04/09 01:16:21;;;;;;;6.15;3.47;;;14.90;99.90;;;;;;5263650;27;20082;-84
2024/04/09 01:18:48;;;;;;;5.82;3.03;;;14.90;99.90;;;;;;5232659;27;20003;-83
2024/04/09 01:21:16;;;;;;;7.22;3.25;;;14.80;99.90;;;;;;5224692;27;20454;-83
2024/04/09 01:23:43;;;;;;;7.13;3.67;;;14.80;99.90;;;;;;5254129;27;20011;-83
2024/04/09 01:26:10;;;;;;;5.28;3.03;;;14.80;99.90;;;;;;5223053;27;20459;-83
2024/04/09 01:28:39;;;;;;;5.78;3.15;;;14.80;99.90;;;;;;5245925;26;20479;-84
2024/04/09 01:31:11;;;;;;;6.50;2.80;;;14.70;99.90;;;;;;5257747;27;20418;-84
2024/04/09 01:33:39;;;;;;;6.43;2.92;;;14.70;99.90;;;;;;5202445;27;20351;-83
2024/04/09 01:36:10;;;;;;;5.63;2.95;;;14.70;99.90;;;;;;5218730;27;20039;-83
2024/04/09 01:38:38;;;;;;;3.90;2.20;;;14.70;99.90;;;;;;5244606;27;20011;-82
2024/04/09 01:41:05;;;;;;;3.78;1.98;;;14.70;99.90;;;;;;5247218;27;20006;-82
2024/04/09 01:43:32;;;;;;;3.67;1.73;;;14.70;99.90;;;;;;5208323;27;20003;-82
2024/04/09 01:46:07;;;;;;;4.22;1.60;;;14.70;99.90;;;;;;5218386;27;20081;-83
2024/04/09 01:48:34;;;;;;;2.95;1.52;;;14.80;99.90;;;;;;5235556;27;20005;-83
2024/04/09 01:51:08;;;;;;;4.20;1.73;;;14.80;99.90;;;;;;5218582;27;20003;-83
2024/04/09 01:53:35;;;;;;;2.40;0.85;;;14.80;99.90;;;;;;5241163;27;20076;-83
2024/04/09 01:56:02;;;;;;;2.97;1.13;;;14.80;99.90;;;;;;5215148;27;20003;-83
2024/04/09 01:58:30;;;;;;;2.40;1.02;;;14.80;99.90;;;;;;5231297;27;20026;-83
2024/04/09 02:01:19;;;;;;;2.65;0.82;;;14.80;99.90;;;;;;5264777;27;20056;-83
2024/04/09 02:03:49;;;;;;;1.55;0.60;;;14.80;99.90;;;;;;5279061;27;20338;-83
2024/04/09 02:06:17;;;;;;;2.30;1.23;;;14.80;99.90;;;;;;5210684;27;20018;-83
2024/04/09 02:08:44;;;;;;;2.35;0.75;;;14.80;99.90;;;;;;5192577;27;20246;-83
2024/04/09 02:11:12;;;;;;;3.38;0.80;;;14.80;99.90;;;;;;5254860;27;20005;-83
2024/04/09 02:13:40;;;;;;;1.20;0.50;;;14.80;99.90;;;;;;5223305;27;19999;-83
2024/04/09 02:16:09;;;;;;;3.03;0.80;;;14.80;99.90;;;;;;5239539;27;20042;-83
2024/04/09 02:18:38;;;;;;;2.30;0.60;;;14.80;99.90;;;;;;5217992;27;20403;-83
2024/04/09 02:21:09;;;;;;;2.13;0.90;;;14.70;99.90;;;;;;5248078;27;20018;-83
2024/04/09 02:23:41;;;;;;;1.70;0.75;;;14.70;99.90;;;;;;5256462;27;20055;-82
2024/04/09 02:26:11;;;;;;;1.17;0.60;;;14.60;99.90;;;;;;5236329;27;20020;-82
2024/04/09 02:28:48;;;;;;;2.17;0.70;;;14.60;99.90;;;;;;5246627;27;20497;-83
2024/04/09 02:31:15;;;;;;;2.25;0.70;;;14.60;99.90;;;;;;5267230;27;20010;-83
2024/04/09 02:33:43;;;;;;;1.33;0.52;;;14.60;99.90;;;;;;5245284;27;20081;-83
2024/04/09 02:36:11;;;;;;;2.70;1.02;;;14.60;99.90;;;;;;5245004;27;20078;-83
2024/04/09 02:38:39;;;;;;;2.47;0.70;;;14.60;99.90;;;;;;5246977;27;20006;-83
2024/04/09 02:41:07;;;;;;;2.65;0.73;;;14.60;99.90;;;;;;5195688;27;20073;-83
2024/04/09 02:43:38;;;;;;;2.17;0.80;;;14.60;99.90;;;;;;5167775;27;20003;-83
2024/04/09 02:46:05;;;;;;;2.67;0.90;;;14.60;99.90;;;;;;5244763;27;20081;-83
2024/04/09 02:48:32;;;;;;;2.30;0.60;;;14.60;99.90;;;;;;5262980;27;20405;-83
2024/04/09 02:51:05;;;;;;;2.03;0.55;;;14.60;99.90;;;;;;5250978;27;20002;-83
2024/04/09 02:53:35;;;;;;;3.53;1.05;;;14.60;99.90;;;;;;5277029;27;20002;-84
2024/04/09 02:56:10;;;;;;;1.40;0.50;;;14.60;99.90;;;;;;5244792;27;20019;-84
2024/04/09 02:58:53;;;;;;;1.40;0.50;;;14.60;99.90;;;;;;5293137;27;20009;-84
2024/04/09 03:01:20;;;;;;;1.90;0.82;;;14.60;99.90;;;;;;5250361;27;20009;-84
2024/04/09 03:03:49;;;;;;;1.55;0.50;;;14.60;99.90;;;;;;5244405;27;20546;-84
2024/04/09 03:06:16;;;;;;;1.88;0.50;;;14.60;99.90;;;;;;5244269;27;20047;-84
2024/04/09 03:08:44;;;;;;;1.23;0.40;;;14.60;99.90;;;;;;5217683;27;20014;-84
2024/04/09 03:11:18;;;;;;;1.67;0.70;;;14.60;99.90;;;;;;5248100;27;20408;-84
2024/04/09 03:13:49;;;;;;;3.35;0.80;;;14.60;99.90;;;;;;5254459;27;20008;-84
2024/04/09 03:16:21;;;;;;;2.83;1.00;;;14.60;99.90;;;;;;5298887;27;20006;-84
2024/04/09 03:18:55;;;;;;;2.00;0.60;;;14.60;99.90;;;;;;5260509;27;20003;-84
2024/04/09 03:21:39;;;;;;;1.73;0.43;;;14.70;99.90;;;;;;5229091;27;20017;-85
2024/04/09 03:24:07;;;;;;;2.75;0.65;;;14.60;99.90;;;;;;5231718;27;20373;-85
2024/04/09 03:26:34;;;;;;;1.75;0.50;;;14.60;99.90;;;;;;5218693;27;20003;-85
2024/04/09 03:29:07;;;;;;;3.10;1.05;;;14.60;99.90;;;;;;5192245;27;20003;-84
2024/04/09 03:31:34;;;;;;;3.10;0.70;;;14.60;99.90;;;;;;5252522;27;20039;-84
2024/04/09 03:34:04;;;;;;;2.58;0.50;;;14.70;99.90;;;;;;5193517;27;20081;-85
2024/04/09 03:36:31;;;;;;;3.45;0.70;;;14.70;99.90;;;;;;5215143;27;20003;-85
2024/04/09 03:39:04;;;;;;;2.58;0.60;;;14.70;99.90;;;;;;5255614;27;20021;-83
2024/04/09 03:41:31;;;;;;;2.33;0.50;;;14.70;99.90;;;;;;5263559;27;20012;-83
2024/04/09 03:44:00;;;;;;;1.33;0.50;;;14.70;99.90;;;;;;5243895;27;20456;-83
2024/04/09 03:46:27;;;;;;;2.28;0.50;;;14.70;99.90;;;;;;5231893;27;20002;-83
2024/04/09 03:48:57;;;;;;;2.22;0.82;;;14.70;99.90;;;;;;5200347;27;20456;-83
2024/04/09 03:51:24;;;;;;;1.02;0.50;;;14.70;99.90;;;;;;5206422;27;19998;-83
2024/04/09 03:53:52;;;;;;;1.58;0.65;;;14.70;99.90;;;;;;5233626;27;20031;-83
2024/04/09 03:56:19;;;;;;;3.22;0.85;;;14.70;99.90;;;;;;5223050;27;20523;-83
2024/04/09 03:58:49;;;;;;;2.30;1.20;;;14.70;99.90;;;;;;5260900;27;20017;-83
2024/04/09 04:01:17;;;;;;;4.88;1.40;;;14.70;99.90;;;;;;5226542;27;19998;-83
2024/04/09 04:03:47;;;;;;;3.15;1.10;;;14.70;99.90;;;;;;5228448;27;20078;-83
2024/04/09 04:06:16;;;;;;;3.10;1.38;;;14.60;99.90;;;;;;5291864;27;20050;-83
2024/04/09 04:08:48;;;;;;;4.03;1.77;;;14.60;99.90;;;;;;5237346;27;20338;-83
2024/04/09 04:11:15;;;;;;;4.32;1.45;;;14.50;99.90;;;;;;5243593;27;20003;-83
2024/04/09 04:13:42;;;;;;;4.68;2.17;;;14.50;99.90;;;;;;5257413;27;20019;-83
2024/04/09 04:16:14;;;;;;;3.70;1.90;;;14.50;99.90;;;;;;5241358;27;20070;-83
2024/04/09 04:18:43;;;;;;;4.40;2.25;;;14.50;99.90;;;;;;5260212;27;20006;-83
2024/04/09 04:21:15;;;;;;;6.45;3.15;;;14.50;99.90;;;;;;5253910;27;20077;-83
2024/04/09 04:23:47;;;;;;;5.32;2.75;;;14.60;99.90;;;;;;5271292;27;20014;-83
2024/04/09 04:26:19;;;;;;;5.53;3.42;;;14.60;99.90;;;;;;5259402;27;20007;-83
2024/04/09 04:28:48;;;;;;;4.50;3.10;;;14.60;99.90;;;;;;5241170;27;20031;-83
2024/04/09 04:31:17;;;;;;;6.72;3.40;;;14.60;99.90;;;;;;5259870;27;20077;-84
2024/04/09 04:33:45;;;;;;;7.28;3.53;;;14.60;99.90;;;;;;5241265;27;20014;-84
2024/04/09 04:36:15;;;;;;;5.38;3.33;;;14.60;99.90;;;;;;5293647;27;20140;-84
2024/04/09 04:38:44;;;;;;;7.30;3.78;;;14.60;99.90;;;;;;5203389;27;19999;-84
2024/04/09 04:41:12;;;;;;;7.93;3.90;;;14.60;99.90;;;;;;5254289;27;20016;-84
2024/04/09 04:43:39;;;;;;;8.52;4.53;;;14.60;99.90;;;;;;5253246;27;20018;-84
2024/04/09 04:46:07;;;;;;;9.10;5.18;;;14.60;99.90;;;;;;5234573;27;20011;-84
2024/04/09 04:48:37;;;;;;;10.23;7.00;;;14.60;99.90;;;;;;5243223;27;19999;-84
2024/04/09 04:51:05;;;;;;;14.95;6.82;;;14.60;99.90;;;;;;5228086;27;20359;-83
2024/04/09 04:53:33;;;;;;;11.35;6.38;;;14.60;99.90;;;;;;5270666;27;20082;-83
2024/04/09 04:56:00;;;;;;;11.95;7.03;;;14.50;99.90;;;;;;5266472;27;20086;-82
2024/04/09 04:58:27;;;;;;;9.32;6.95;;;14.50;99.90;;;;;;5258802;27;20006;-82
2024/04/09 05:00:54;;;;;;;10.73;6.82;;;14.50;99.90;;;;;;5265868;27;20018;-83
2024/04/09 05:03:23;;;;;;;7.88;5.75;;;14.50;99.90;;;;;;5256496;27;20026;-83
2024/04/09 05:05:51;;;;;;;9.93;6.70;;;14.40;99.90;;;;;;5256109;27;20043;-82
2024/04/09 05:08:18;;;;;;;10.45;6.65;;;14.40;99.90;;;;;;5244112;27;20010;-82
2024/04/09 05:10:46;;;;;;;8.65;6.22;;;14.40;99.90;;;;;;5246071;27;20362;-83
2024/04/09 05:13:13;;;;;;;10.98;6.97;;;14.40;99.90;;;;;;5268423;27;20001;-82
2024/04/09 05:15:40;;;;;;;11.13;6.40;;;14.30;99.90;;;;;;5224963;27;20013;-82
2024/04/09 05:18:08;;;;;;;11.48;7.05;;;14.30;99.90;;;;;;5219445;27;20010;-82
2024/04/09 05:20:39;;;;;;;11.25;6.65;;;14.30;99.90;;;;;;5232933;27;20348;-82
2024/04/09 05:23:07;;;;;;;7.60;5.32;;;14.30;99.90;;;;;;5241562;27;20003;-83
2024/04/09 05:25:34;;;;;;;7.80;4.78;;;14.20;99.90;;;;;;5273306;27;20139;-83
2024/04/09 05:28:02;;;;;;;10.57;6.20;;;14.20;99.90;;;;;;5271934;27;20343;-83
2024/04/09 05:30:30;;;;;;;9.05;5.22;;;14.20;99.90;;;;;;5228746;27;20426;-83
2024/04/09 05:32:57;;;;;;;8.57;5.07;;;14.20;99.90;;;;;;5218562;27;20343;-82
2024/04/09 05:35:26;;;;;;;6.57;4.47;;;14.20;99.90;;;;;;5220094;27;20012;-83
2024/04/09 05:37:53;;;;;;;8.77;5.63;;;14.20;99.90;;;;;;5246521;27;20013;-83
2024/04/09 05:40:21;;;;;;;9.57;6.28;;;14.30;99.90;;;;;;5242163;27;20015;-82
2024/04/09 05:42:48;;;;;;;8.43;6.43;;;14.20;99.90;;;;;;5265526;27;20474;-83
2024/04/09 05:45:19;;;;;;;8.60;6.47;;;14.20;99.90;;;;;;5260727;27;20002;-83
2024/04/09 05:47:47;;;;;;;8.98;5.95;;;14.20;99.90;;;;;;5249549;27;20003;-83
2024/04/09 05:50:14;;;;;;;9.27;6.65;;;14.20;99.90;;;;;;5240232;27;20335;-83
2024/04/09 05:52:41;;;;;;;9.75;6.07;;;14.20;99.90;;;;;;5217966;27;20015;-82
2024/04/09 05:55:09;;;;;;;7.25;5.32;;;14.20;99.90;;;;;;5217907;27;20003;-83
2024/04/09 05:57:39;;;;;;;9.13;5.35;;;14.20;99.90;;;;;;5222880;27;20370;-84
2024/04/09 06:00:13;;;;;;;7.60;4.85;;;14.20;99.90;;;;;;5245497;27;20052;-84
2024/04/09 06:02:45;;;;;;;6.63;4.78;;;14.10;99.90;;;;;;5224839;27;20002;-83
2024/04/09 06:05:15;;;;;;;7.30;3.95;;;14.10;99.90;;;;;;5260604;27;20484;-83
2024/04/09 06:07:44;;;;;;;6.00;3.97;;;14.00;99.90;;;;;;5220302;27;20006;-83
2024/04/09 06:10:14;;;;;;;6.00;3.80;;;14.00;99.90;;;;;;5266120;27;20006;-83
2024/04/09 06:12:41;;;;;;;6.78;3.65;;;14.00;99.90;;;;;;5250913;27;20021;-81
2024/04/09 06:15:09;;;;;;;5.25;3.78;;;14.00;99.90;;;;;;5253606;27;20440;-83
2024/04/09 06:17:36;;;;;;;5.78;3.63;;;14.00;99.90;;;;;;5236477;27;20007;-82
2024/04/09 06:20:04;;;;;;;5.28;3.15;;;14.00;99.90;;;;;;5240647;27;20005;-81
2024/04/09 06:22:32;;;;;;;4.75;2.85;;;13.90;99.90;;;;;;5256567;27;20452;-81
2024/04/09 06:25:00;;;;;;;4.72;2.60;;;13.90;99.90;;;;;;5244042;27;20331;-82
2024/04/09 06:27:27;;;;;;;4.72;2.67;;;13.90;99.90;;;;;;5224524;27;20007;-82
2024/04/09 06:29:55;;;;;;;5.60;2.50;;;13.90;99.90;;;;;;5254378;27;20003;-81
2024/04/09 06:32:22;;;;;;;2.95;1.83;;;13.90;99.90;;;;;;5255425;27;20120;-82
2024/04/09 06:34:50;;;;;;;3.08;2.10;;;13.90;99.90;;;;;;5190077;27;20003;-82
2024/04/09 06:37:17;;;;;;;4.43;2.03;;;13.90;99.90;;;;;;5170688;27;20537;-82
2024/04/09 06:39:45;;;;;;;3.30;1.80;;;13.90;99.90;;;;;;5277245;27;20010;-83
2024/04/09 06:42:13;;;;;;;2.83;1.60;;;13.90;99.90;;;;;;5251162;27;20010;-82
2024/04/09 06:44:40;;;;;;;3.70;1.60;;;13.90;99.90;;;;;;5294586;27;20005;-82
2024/04/09 06:47:07;;;;;;;3.92;1.38;;;14.00;99.90;;;;;;5253134;27;20403;-82
2024/04/09 06:49:34;;;;;;;3.35;1.20;;;14.00;99.90;;;;;;5244398;27;20551;-80
2024/04/09 06:52:01;;;;;;;2.55;1.40;;;14.00;99.90;;;;;;5196062;27;20002;-82
2024/04/09 06:54:28;;;;;;;4.70;1.13;;;14.10;99.90;;;;;;5184519;27;20397;-82
2024/04/09 06:56:56;;;;;;;1.77;0.70;;;14.10;99.90;;;;;;5201840;27;20459;-82
2024/04/09 06:59:23;;;;;;;6.55;1.15;;;14.10;99.90;;;;;;5251587;27;20467;-83
2024/04/09 07:01:51;;;;;;;3.95;0.80;;;14.10;99.90;;;;;;5229255;27;20014;-82
2024/04/09 07:04:18;;;;;;;1.95;0.50;;;14.10;99.90;;;;;;5250657;27;20005;-81
2024/04/09 07:06:45;;;;;;;1.75;0.40;;;14.10;99.90;;;;;;5240289;27;20006;-82
2024/04/09 07:09:16;;;;;;;1.73;0.50;;;14.10;99.90;;;;;;5256612;27;20069;-82
2024/04/09 07:11:46;;;;;;;2.00;0.50;;;14.00;99.90;;;;;;5183659;27;20007;-81
2024/04/09 07:14:14;;;;;;;1.35;0.50;;;14.00;99.90;;;;;;5245682;27;20006;-82
2024/04/09 07:16:46;;;;;;;4.28;0.65;;;13.80;99.90;;;;;;5229262;27;20006;-82
2024/04/09 07:19:14;;;;;;;2.33;0.50;;;13.70;99.90;;;;;;5236633;27;20002;-82
2024/04/09 07:21:41;;;;;;;1.52;0.40;;;13.60;99.90;;;;;;5216668;27;20007;-82
2024/04/09 07:24:09;;;;;;;1.00;0.30;;;13.50;99.30;;;;;;5232015;27;20043;-81
2024/04/09 07:26:37;;;;;;;1.90;0.30;;;13.40;98.40;;;;;;5246499;27;20006;-82
2024/04/09 07:29:04;;;;;;;4.72;0.50;;;13.40;98.30;;;;;;5234251;27;20013;-82
2024/04/09 07:31:31;;;;;;;3.13;0.43;;;13.40;98.40;;;;;;5243714;27;20077;-81
2024/04/09 07:33:58;;;;;;;5.32;0.50;;;13.50;98.20;;;;;;5228387;27;20018;-82
2024/04/09 07:36:26;;;;;;;3.63;0.50;;;13.50;98.10;;;;;;5258045;27;20003;-87
2024/04/09 07:38:56;;;;;;;3.35;0.60;;;13.60;98.00;;;;;;5244906;27;20003;-82
2024/04/09 07:41:25;;;;;;;2.17;0.30;;;13.60;97.40;;;;;;5216227;27;19999;-85
2024/04/09 07:44:01;;;;;;;2.47;0.35;;;13.60;97.30;;;;;;5218918;27;20007;-81
2024/04/09 07:46:28;;;;;;;3.45;0.30;;;13.50;97.00;;;;;;5208298;27;20474;-80
2024/04/09 07:48:59;;;;;;;2.40;0.30;;;13.60;96.60;;;;;;5255756;27;20088;-79
2024/04/09 07:51:28;;;;;;;1.88;0.32;;;13.60;96.50;;;;;;5243687;27;20003;-80
2024/04/09 07:53:55;;;;;;;4.53;0.88;;;13.60;96.10;;;;;;5269634;27;20014;-83
2024/04/09 07:56:24;;;;;;;2.40;0.35;;;13.60;95.10;;;;;;5262255;27;20029;-79
2024/04/09 07:58:51;;;;;;;5.28;0.70;;;13.60;94.60;;;;;;5203549;27;20088;-79
2024/04/09 08:01:18;;;;;;;3.70;0.30;;;13.50;94.30;;;;;;5232997;27;20106;-81
2024/04/09 08:03:45;;;;;;;2.90;0.40;;;13.50;94.30;;;;;;5234124;27;20002;-79
2024/04/09 08:06:12;;;;;;;4.03;0.73;;;13.50;93.60;;;;;;5229649;27;20011;-86
2024/04/09 08:08:40;;;;;;;4.97;0.75;;;13.50;93.30;;;;;;5177932;27;20007;-81
2024/04/09 08:11:11;;;;;;;0.90;0.25;;;13.40;92.80;;;;;;5240149;27;19999;-86
2024/04/09 08:13:42;;;;;;;2.85;0.40;;;13.40;92.60;;;;;;5255608;27;20077;-88
2024/04/09 08:16:27;;;;;;;1.85;0.45;;;13.40;92.20;;;;;;5246998;27;20034;-87
2024/04/09 08:18:54;;;;;;;2.05;0.30;;;13.40;92.60;;;;;;5179583;27;20012;-84
2024/04/09 08:21:24;;;;;;;1.45;0.32;;;13.50;92.90;;;;;;5241175;27;20003;-84
2024/04/09 08:23:52;;;;;;;3.30;0.82;;;13.50;92.80;;;;;;5255385;27;20085;-88
2024/04/09 08:26:21;;;;;;;2.50;0.30;;;13.60;92.70;;;;;;5232789;27;20014;-84
2024/04/09 08:28:48;;;;;;;1.15;0.30;;;13.70;92.80;;;;;;5267002;27;20007;-84
2024/04/09 08:31:17;;;;;;;2.53;0.30;;;13.70;92.90;;;;;;5230131;27;20003;-83
2024/04/09 08:33:44;;;;;;;4.68;0.40;;;13.70;92.50;;;;;;5243358;27;20074;-83
2024/04/09 08:36:14;;;;;;;3.47;0.35;;;13.70;92.00;;;;;;5272741;27;20080;-92
2024/04/09 08:38:59;;;;;;;3.22;0.40;;;13.70;91.60;;;;;;5251793;27;20006;-93
2024/04/09 08:41:36;;;;;;;5.90;0.85;;;13.60;91.40;;;;;;5223411;27;20006;-93
2024/04/09 08:44:08;;;;;;;1.17;0.30;;;13.70;91.60;;;;;;5241240;27;20039;-84
2024/04/09 08:46:40;;;;;;;1.45;0.32;;;13.70;91.60;;;;;;5230952;27;20015;-85
2024/04/09 08:49:08;;;;;;;;;;;13.80;91.50;;;;;;5251888;27;20003;-83
2024/04/09 08:51:40;;;;;;;4.10;0.57;;;13.90;91.10;;;;;;5287714;27;19934;-86
2024/04/09 08:54:08;;;;;;;4.35;0.47;;;13.90;91.00;;;;;;5236255;27;20019;-85
2024/04/09 08:56:35;;;;;;;3.80;0.38;;;14.00;90.90;;;;;;5197348;27;20006;-88
2024/04/09 08:59:13;;;;;;;4.80;0.35;;;14.10;90.70;;;;;;5270592;27;20015;-90
2024/04/09 09:01:41;;;;;;;1.50;0.50;;;14.10;90.40;;;;;;5230492;27;20011;-84
2024/04/09 09:04:14;;;;;;;2.63;0.47;;;14.10;90.30;;;;;;5294105;26;20005;-86
2024/04/09 09:06:51;;;;;;;2.13;0.57;;;14.20;90.00;;;;;;5270992;27;20003;-87
2024/04/09 09:09:26;;;;;;;2.35;0.30;;;14.20;90.00;;;;;;5248744;27;20015;-89
2024/04/09 09:12:12;;;;;;;4.10;0.60;;;14.20;89.70;;;;;;5264167;27;20002;-88
2024/04/09 09:15:03;;;;;;;2.83;0.30;;;14.20;88.50;;;;;;5225739;27;20012;-85
2024/04/09 09:17:33;;;;;;;3.03;0.30;;;14.30;88.60;;;;;;5225224;27;20003;-87
2024/04/09 09:20:08;;;;;;;4.55;0.68;;;14.30;88.70;;;;;;5230889;27;20003;-88
2024/04/09 09:22:54;;;;;;;1.75;0.38;;;14.40;87.10;;;;;;5221815;27;20003;-96
2024/04/09 09:25:27;;;;;;;1.92;0.40;;;14.50;87.40;;;;;;5238627;27;20323;-94
2024/04/09 09:28:07;;;;;;;4.57;0.40;;;14.50;86.00;;;;;;5242337;27;20003;-87
2024/04/09 09:30:42;;;;;;;2.35;0.30;;;14.50;85.40;;;;;;5222656;27;20063;-87
2024/04/09 09:33:19;;;;;;;6.00;0.30;;;14.60;86.00;;;;;;5262807;27;20009;-84
2024/04/09 09:35:49;;;;;;;3.97;0.47;;;14.80;82.50;;;;;;5243577;27;20010;-82
2024/04/09 09:41:18;;;;;;;2.70;0.40;;;14.80;82.40;;;;;;5229025;27;20026;-87
2024/04/09 09:43:46;;;;;;;2.85;0.43;;;14.80;81.80;;;;;;5230340;27;20003;-89
2024/04/09 09:46:17;;;;;;;1.40;0.22;;;14.80;81.10;;;;;;5233236;27;20014;-87
2024/04/09 09:48:46;;;;;;;1.90;0.32;;;15.00;81.20;;;;;;5249667;27;20003;-86
2024/04/09 09:51:14;;;;;;;2.08;0.35;;;15.10;81.10;;;;;;5242928;27;20006;-93
2024/04/09 09:53:42;;;;;;;3.70;0.40;;;15.10;79.40;;;;;;5252483;27;20002;-86
2024/04/09 09:56:09;;;;;;;2.88;0.40;;;15.00;78.40;;;;;;5245566;27;20088;-83
2024/04/09 09:58:38;;;;;;;2.20;0.20;;;14.80;77.70;;;;;;5218432;27;20014;-84
2024/04/09 10:01:08;;;;;;;4.90;0.55;;;14.60;78.30;;;;;;5260317;27;20115;-89
2024/04/09 10:03:35;;;;;;;2.35;0.30;;;14.60;78.50;;;;;;5223930;27;20003;-83
2024/04/09 10:06:03;;;;;;;2.30;0.35;;;14.90;78.60;;;;;;5245579;27;20029;-82
2024/04/09 10:08:30;;;;;;;1.75;0.30;;;14.90;77.10;;;;;;5244459;27;20406;-84
2024/04/09 10:11:03;;;;;;;2.63;0.50;;;14.80;76.80;;;;;;5260686;27;20006;-84
2024/04/09 10:13:31;;;;;;;1.35;0.22;;;14.80;76.50;;;;;;5245535;27;20027;-87
2024/04/09 10:16:00;;;;;;;4.35;0.50;;;15.00;76.80;;;;;;5266791;27;20002;-87
2024/04/09 10:18:33;;;;;;;4.30;0.60;;;15.10;75.40;;;;;;5268720;27;20006;-85
2024/04/09 10:21:03;;;;;;;2.67;0.30;;;15.20;76.20;;;;;;5255346;27;20017;-86
2024/04/09 10:23:36;;;;;;;3.33;0.30;;;15.20;75.80;;;;;;5251248;27;20030;-87
2024/04/09 10:26:11;;;;;;;2.42;0.63;;;15.10;75.30;;;;;;5256508;27;19999;-93
2024/04/09 10:28:38;;;;;;;1.90;0.30;;;14.90;74.60;;;;;;5223656;27;20007;-83
2024/04/09 10:31:09;;;;;;;2.85;0.50;;;14.70;75.30;;;;;;5252838;27;20458;-86
2024/04/09 10:33:38;;;;;;;1.42;0.40;;;14.70;75.80;;;;;;5192425;27;20455;-85
2024/04/09 10:36:09;;;;;;;3.50;0.40;;;14.80;76.50;;;;;;5242348;27;20014;-83
2024/04/09 10:38:43;;;;;;;5.28;0.40;;;15.00;75.40;;;;;;5256946;27;20094;-83
2024/04/09 10:41:11;;;;;;;3.00;0.30;;;15.00;74.40;;;;;;5228323;27;20027;-84
2024/04/09 10:43:40;;;;;;;2.53;0.40;;;15.10;73.30;;;;;;5237400;27;20014;-84
2024/04/09 10:46:07;;;;;;;2.17;0.20;;;15.10;73.70;;;;;;5196421;27;19998;-82
2024/04/09 10:48:42;;;;;;;1.40;0.75;;;15.10;73.10;;;;;;5285943;27;20082;-84
2024/04/09 10:51:10;;;;;;;1.17;0.20;;;15.20;72.20;;;;;;5190016;27;20470;-86
2024/04/09 10:53:38;;;;;;;2.80;0.25;;;15.30;71.90;;;;;;5217369;27;20305;-85
2024/04/09 10:56:07;;;;;;;1.20;0.28;;;15.30;71.30;;;;;;5244979;27;20005;-85
2024/04/09 10:58:38;;;;;;;0.85;0.10;;;15.30;70.70;;;;;;5221278;27;20017;-83
2024/04/09 11:01:12;;;;;;;1.05;0.20;;;15.30;71.10;;;;;;5271980;27;20451;-82
2024/04/09 11:03:40;;;;;;;1.55;0.20;;;15.30;71.30;;;;;;5259829;27;20022;-83
2024/04/09 11:06:12;;;;;;;3.83;0.20;;;15.20;70.80;;;;;;5212732;27;20003;-82
2024/04/09 11:08:39;;;;;;;2.83;0.30;;;15.10;70.80;;;;;;5229898;27;20006;-82
2024/04/09 11:11:08;;;;;;;0.80;0.20;;;15.00;71.30;;;;;;5253165;27;20006;-82
2024/04/09 11:13:36;;;;;;;1.02;0.20;;;15.00;71.80;;;;;;5267112;27;20447;-82
2024/04/09 11:16:03;;;;;;;0.73;0.10;;;15.00;71.20;;;;;;5270982;27;20002;-83
2024/04/09 11:18:33;;;;;;;3.30;0.30;;;15.10;71.80;;;;;;5234526;27;20007;-81
2024/04/09 11:21:06;;;;;;;2.40;0.40;;;15.10;71.10;;;;;;5263295;27;20467;-83
2024/04/09 11:23:35;;;;;;;1.48;0.10;;;15.20;71.40;;;;;;5236301;27;20011;-82
2024/04/09 11:26:05;;;;;;;0.85;0.20;;;15.30;70.90;;;;;;5217222;27;20448;-85
2024/04/09 11:28:32;;;;;;;1.38;0.25;;;15.20;69.60;;;;;;5239341;27;20018;-88
2024/04/09 11:31:00;;;;;;;1.75;0.35;;;15.10;69.60;;;;;;5244246;27;20007;-86
2024/04/09 11:33:28;;;;;;;1.20;0.10;;;15.00;70.20;;;;;;5226841;27;20082;-86
2024/04/09 11:35:58;;;;;;;1.25;0.22;;;15.00;70.10;;;;;;5257127;27;20465;-82
2024/04/09 11:38:39;;;;;;;2.90;0.40;;;15.10;69.40;;;;;;5270846;27;20002;-88
2024/04/09 11:41:07;;;;;;;1.80;0.30;;;15.10;69.30;;;;;;5266992;27;20002;-83
2024/04/09 11:43:37;;;;;;;2.33;0.60;;;15.20;69.40;;;;;;5273482;27;20451;-84
2024/04/09 11:46:06;;;;;;;3.05;0.60;;;15.30;69.40;;;;;;5238551;27;20454;-84
2024/04/09 11:48:33;;;;;;;2.83;0.30;;;15.50;68.20;;;;;;5194494;27;20003;-85
2024/04/09 11:51:00;;;;;;;2.92;0.70;;;15.60;68.60;;;;;;5258310;27;20335;-83
2024/04/09 11:53:31;;;;;;;5.50;0.30;;;15.80;67.70;;;;;;5192158;27;20035;-88
2024/04/09 11:56:00;;;;;;;3.22;0.55;;;16.10;67.60;;;;;;5290142;27;20006;-87
2024/04/09 11:58:27;;;;;;;2.17;0.13;;;16.10;66.40;;;;;;5245371;27;20003;-88
2024/04/09 12:00:56;;;;;;;3.72;0.55;;;16.10;65.40;;;;;;5226447;27;20002;-90
2024/04/09 12:03:24;;;;;;;1.13;0.40;;;15.90;66.00;;;;;;5241604;27;20018;-82
2024/04/09 12:05:54;;;;;;;1.45;0.25;;;15.90;66.30;;;;;;5243226;27;20007;-83
2024/04/09 12:08:24;;;;;;;1.98;0.10;;;15.80;66.40;;;;;;5254467;27;20007;-84
2024/04/09 12:10:52;;;;;;;1.40;0.20;;;15.70;66.40;;;;;;5242347;27;20034;-83
2024/04/09 12:13:22;;;;;;;0.47;0.20;;;15.60;67.10;;;;;;5253708;27;20006;-91
2024/04/09 12:15:49;;;;;;;1.30;0.30;;;15.50;65.60;;;;;;5258397;27;20007;-91
2024/04/09 12:18:17;;;;;;;2.10;0.20;;;15.40;65.60;;;;;;5257449;27;20017;-91
2024/04/09 12:20:47;;;;;;;2.47;0.20;;;15.40;66.40;;;;;;5258015;27;20320;-89
2024/04/09 12:23:15;;;;;;;2.00;0.20;;;15.40;66.50;;;;;;5272394;27;20482;-93
2024/04/09 12:25:48;;;;;;;2.85;0.20;;;15.40;65.40;;;;;;5188055;27;20468;-87
2024/04/09 12:28:16;;;;;;;3.30;0.52;;;15.30;66.00;;;;;;5236645;27;20087;-88
2024/04/09 12:30:43;;;;;;;1.52;0.20;;;15.20;66.30;;;;;;5258400;27;19999;-87
2024/04/09 12:33:11;;;;;;;3.95;0.38;;;15.10;66.30;;;;;;5249642;27;20011;-88
2024/04/09 12:35:39;;;;;;;1.25;0.17;;;15.10;66.70;;;;;;5270887;27;20006;-91
2024/04/09 12:38:06;;;;;;;1.02;0.20;;;15.10;66.60;;;;;;5209758;27;20046;-91
2024/04/09 12:40:33;;;;;;;0.82;0.30;;;15.20;66.50;;;;;;5205320;27;20321;-88
2024/04/09 12:43:01;;;;;;;1.65;0.20;;;15.20;66.10;;;;;;5234027;27;20010;-89
2024/04/09 12:45:28;;;;;;;2.72;0.28;;;15.20;65.30;;;;;;5272931;27;20005;-90
2024/04/09 12:47:55;;;;;;;2.28;0.20;;;15.10;66.00;;;;;;5233893;27;20468;-89
2024/04/09 12:50:25;;;;;;;1.88;0.30;;;15.00;66.40;;;;;;5246332;27;20004;-89
2024/04/09 12:52:55;;;;;;;2.70;0.20;;;15.00;66.70;;;;;;5224198;27;20003;-90
2024/04/09 12:55:26;;;;;;;1.88;0.50;;;14.90;67.00;;;;;;5244511;27;20007;-91
2024/04/09 12:57:53;;;;;;;4.00;0.40;;;14.90;67.40;;;;;;5192467;27;20023;-87
2024/04/09 13:00:21;;;;;;;1.77;0.30;;;15.00;67.40;;;;;;5202308;27;20014;-90